createdAt,value
2019-01-23T00:01:21.003Z,94.23
2019-01-23T00:03:48.128Z,95.36
2019-01-23T00:04:42.399Z,94.89
2019-01-23T00:05:39.431Z,94.08
2019-01-23T00:06:42.391Z,94.56
2019-01-23T00:07:47.992Z,94.89
2019-01-23T00:08:42.453Z,95.78
2019-01-23T00:09:34.074Z,93.8
2019-01-23T00:10:26.414Z,93.7
2019-01-23T00:11:18.604Z,94.08
2019-01-23T00:12:11.170Z,93.04
2019-01-23T00:13:04.403Z,92.66
2019-01-23T00:13:56.766Z,91.38
2019-01-23T00:14:56.533Z,89.58
2019-01-23T00:15:51.256Z,87.88
2019-01-23T00:16:50.671Z,87.65
2019-01-23T00:17:47.051Z,90.2
2019-01-23T00:18:48.830Z,90.67
2019-01-23T00:19:41.548Z,89.01
2019-01-23T00:20:33.955Z,87.93
2019-01-23T00:21:28.217Z,88.78
2019-01-23T00:27:09.593Z,90.01
2019-01-23T00:28:01.845Z,89.92
2019-01-23T00:28:55.394Z,90.2
2019-01-23T00:29:49.050Z,90.67
2019-01-23T00:30:41.783Z,91.15
2019-01-23T00:31:33.934Z,90.67
2019-01-23T00:32:27.011Z,91.81
2019-01-23T00:33:20.539Z,90.48
2019-01-23T00:35:15.903Z,91.81
2019-01-23T00:37:09.286Z,92.99
2019-01-23T00:39:36.039Z,92.57
2019-01-23T00:40:28.325Z,91.05
2019-01-23T00:41:20.787Z,90.2
2019-01-23T00:45:02.178Z,88.12
2019-01-23T00:45:54.730Z,90.58
2019-01-23T00:46:47.927Z,89.78
2019-01-23T00:47:40.603Z,89.69
2019-01-23T00:48:33.501Z,90.63
2019-01-23T00:59:30.415Z,93.75
2019-01-23T01:03:23.830Z,92.52
2019-01-23T01:04:19.443Z,93.66
2019-01-23T01:08:12.000Z,93.37
2019-01-23T01:09:05.660Z,94.13
2019-01-23T01:14:00.212Z,96.07
2019-01-23T01:14:53.279Z,97.11
2019-01-23T01:15:48.742Z,96.54
2019-01-23T01:23:21.569Z,95.69
2019-01-23T01:26:29.511Z,98.05
2019-01-23T01:30:39.439Z,98.62
2019-01-23T01:31:54.427Z,97.77
2019-01-23T01:33:05.989Z,98.43
2019-01-23T01:34:02.132Z,98.9
2019-01-23T01:34:55.049Z,97.96
2019-01-23T01:36:17.077Z,97.2
2019-01-23T01:37:10.341Z,95.21
2019-01-23T01:38:06.347Z,96.16
2019-01-23T01:39:04.483Z,95.31
2019-01-23T01:41:27.518Z,95.78
2019-01-23T01:42:31.023Z,94.46
2019-01-23T01:43:26.503Z,95.31
2019-01-23T01:45:21.642Z,95.21
2019-01-23T01:46:14.927Z,96.45
2019-01-23T01:47:07.275Z,97.3
2019-01-23T01:48:01.092Z,97.58
2019-01-23T01:49:04.334Z,97.91
2019-01-23T01:50:01.034Z,94.7
2019-01-23T01:52:09.280Z,89.97
2019-01-23T01:53:01.284Z,92.43
2019-01-23T01:53:53.566Z,91.01
2019-01-23T01:54:45.875Z,91.01
2019-01-23T01:55:38.624Z,91.29
2019-01-23T01:56:31.281Z,90.06
2019-01-23T01:57:24.365Z,89.87
2019-01-23T01:58:16.689Z,91.29
2019-01-23T02:00:09.948Z,90.63
2019-01-23T02:01:03.608Z,90.25
2019-01-23T02:01:58.032Z,91.77
2019-01-23T02:04:15.308Z,92.14
2019-01-23T02:05:07.606Z,92.52
2019-01-23T02:06:02.331Z,91.77
2019-01-23T02:06:54.586Z,90.3
2019-01-23T02:07:51.096Z,90.72
2019-01-23T02:12:13.790Z,93.66
2019-01-23T02:13:15.589Z,92.71
2019-01-23T02:14:22.116Z,90.25
2019-01-23T02:17:12.158Z,89.02
2019-01-23T02:18:04.345Z,90.44
2019-01-23T02:18:56.841Z,91.77
2019-01-23T02:19:49.974Z,91.77
2019-01-23T02:20:42.622Z,91.96
2019-01-23T02:21:34.707Z,93.85
2019-01-23T02:22:27.051Z,94.23
2019-01-23T02:23:20.479Z,94.37
2019-01-23T02:24:12.940Z,91.62
2019-01-23T02:25:05.964Z,87.65
2019-01-23T02:25:57.941Z,87.55
2019-01-23T02:26:51.559Z,87.84
2019-01-23T02:27:42.856Z,89.25
2019-01-23T02:28:34.912Z,89.25
2019-01-23T02:31:02.431Z,88.87
2019-01-23T02:31:56.615Z,87.17
2019-01-23T02:34:18.711Z,87.04
2019-01-23T02:34:57.731Z,87.41
2019-01-23T02:36:51.272Z,89.5
2019-01-23T02:37:43.838Z,90.44
2019-01-23T02:39:44.865Z,93.37
2019-01-23T02:40:39.401Z,94.04
2019-01-23T02:41:32.400Z,94.7
2019-01-23T02:42:24.490Z,94.42
2019-01-23T02:43:18.928Z,93.47
2019-01-23T02:44:12.178Z,92.52
2019-01-23T02:45:05.869Z,92.9
2019-01-23T02:45:58.157Z,91.81
2019-01-23T02:46:51.520Z,89.73
2019-01-23T02:47:44.600Z,87.65
2019-01-23T02:48:36.423Z,90.01
2019-01-23T02:49:28.618Z,89.06
2019-01-23T02:50:20.772Z,89.82
2019-01-23T02:51:14.041Z,88.97
2019-01-23T02:53:48.298Z,87.46
2019-01-23T02:54:40.707Z,86.98
2019-01-23T02:55:35.823Z,86.32
2019-01-23T02:57:28.964Z,88.93
2019-01-23T02:58:22.781Z,89.78
2019-01-23T02:59:17.414Z,89.12
2019-01-23T03:00:08.822Z,90.91
2019-01-23T03:01:01.054Z,91.58
2019-01-23T03:01:53.756Z,92.24
2019-01-23T03:02:45.752Z,92.9
2019-01-23T03:03:38.816Z,92.61
2019-01-23T03:04:30.902Z,91.77
2019-01-23T03:05:23.185Z,91.1
2019-01-23T03:06:15.574Z,90.44
2019-01-23T03:07:08.080Z,90.82
2019-01-23T03:07:58.775Z,90.44
2019-01-23T03:09:53.602Z,91.77
2019-01-23T03:10:45.794Z,90.53
2019-01-23T03:11:37.974Z,90.72
2019-01-23T03:12:30.628Z,90.72
2019-01-23T03:13:23.105Z,91.01
2019-01-23T03:14:15.156Z,91.01
2019-01-23T03:15:07.420Z,91.58
2019-01-23T03:16:00.146Z,91.96
2019-01-23T03:16:52.482Z,91.58
2019-01-23T03:17:45.076Z,94.89
2019-01-23T03:18:37.365Z,96.78
2019-01-23T03:19:29.945Z,95.93
2019-01-23T03:20:22.653Z,94.65
2019-01-23T03:21:14.759Z,91.81
2019-01-23T03:22:06.742Z,87.93
2019-01-23T03:22:59.516Z,86.66
2019-01-23T03:23:52.580Z,89.21
2019-01-23T03:24:44.959Z,89.4
2019-01-23T03:25:36.809Z,89.78
2019-01-23T03:26:29.050Z,89.97
2019-01-23T03:27:21.494Z,90.72
2019-01-23T03:28:13.916Z,92.43
2019-01-23T03:29:06.656Z,93.94
2019-01-23T03:29:59.997Z,93.94
2019-01-23T03:30:52.627Z,93.85
2019-01-23T03:32:58.432Z,94.37
2019-01-23T03:33:50.644Z,94.37
2019-01-23T03:34:43.023Z,94.65
2019-01-23T03:35:34.917Z,95.4
2019-01-23T03:36:26.840Z,95.5
2019-01-23T03:37:18.807Z,95.03
2019-01-23T03:38:11.023Z,94.27
2019-01-23T03:39:03.032Z,95.5
2019-01-23T03:39:55.212Z,95.03
2019-01-23T03:40:46.901Z,95.78
2019-01-23T03:41:40.407Z,95.69
2019-01-23T03:42:32.651Z,96.92
2019-01-23T03:43:24.843Z,97.77
2019-01-23T03:44:17.570Z,98.29
2019-01-23T03:45:07.940Z,97.44
2019-01-23T03:45:50.252Z,95.45
2019-01-23T03:46:30.597Z,94.6
2019-01-23T03:47:10.983Z,92.52
2019-01-23T03:47:51.417Z,92.29
2019-01-23T03:48:31.705Z,92.29
2019-01-23T03:49:12.052Z,90.48
2019-01-23T03:49:52.432Z,89.21
2019-01-23T03:50:32.829Z,90.3
2019-01-23T03:51:13.222Z,90.48
2019-01-23T03:51:53.623Z,89.63
2019-01-23T03:52:33.999Z,89.21
2019-01-23T03:53:14.333Z,88.64
2019-01-23T03:53:54.784Z,90.06
2019-01-23T03:54:35.184Z,89.31
2019-01-23T03:55:15.516Z,88.17
2019-01-23T03:55:55.931Z,90.06
2019-01-23T03:56:36.243Z,91.01
2019-01-23T03:57:16.629Z,90.16
2019-01-23T03:57:57.089Z,90.44
2019-01-23T03:58:37.379Z,90.91
2019-01-23T03:59:17.880Z,91.39
2019-01-23T03:59:58.299Z,90.16
2019-01-23T04:00:38.690Z,90.06
2019-01-23T04:01:19.015Z,92.9
2019-01-23T04:01:59.437Z,92.33
2019-01-23T04:02:39.778Z,91.39
2019-01-23T04:03:20.192Z,92.9
2019-01-23T04:04:00.534Z,92.05
2019-01-23T04:04:40.938Z,90.06
2019-01-23T04:05:21.313Z,89.21
2019-01-23T04:06:01.659Z,89.87
2019-01-23T04:06:42.082Z,90.06
2019-01-23T04:07:22.475Z,89.97
2019-01-23T04:08:03.568Z,90.82
2019-01-23T04:08:43.295Z,91.77
2019-01-23T04:09:23.630Z,91.96
2019-01-23T04:10:04.034Z,91.58
2019-01-23T04:10:44.350Z,92.71
2019-01-23T04:11:24.766Z,92.71
2019-01-23T04:12:05.133Z,92.47
2019-01-23T04:12:45.522Z,93.13
2019-01-23T04:13:25.908Z,93.61
2019-01-23T04:14:06.308Z,95.74
2019-01-23T04:14:46.667Z,94.42
2019-01-23T04:15:27.049Z,95.36
2019-01-23T04:16:07.493Z,94.98
2019-01-23T04:16:47.902Z,95.74
2019-01-23T04:17:28.300Z,93.94
2019-01-23T04:18:08.687Z,93.09
2019-01-23T04:18:49.053Z,93.66
2019-01-23T04:19:29.464Z,94.23
2019-01-23T04:20:09.866Z,94.98
2019-01-23T04:20:50.280Z,93.37
2019-01-23T04:21:30.646Z,91.58
2019-01-23T04:22:11.084Z,91.1
2019-01-23T04:22:51.380Z,91.01
2019-01-23T04:23:31.778Z,90.63
2019-01-23T04:24:12.143Z,90.44
2019-01-23T04:24:52.576Z,89.78
2019-01-23T04:25:32.989Z,89.87
2019-01-23T04:26:13.362Z,90.53
2019-01-23T04:26:53.725Z,92.14
2019-01-23T04:27:34.104Z,93.18
2019-01-23T04:28:14.494Z,92.8
2019-01-23T04:28:54.882Z,91.39
2019-01-23T05:08:41.679Z,85.32
2019-01-23T05:09:34.280Z,83.58
2019-01-23T05:10:27.185Z,84.61
2019-01-23T05:11:19.827Z,84.61
2019-01-23T05:12:12.202Z,86.22
2019-01-23T05:13:04.768Z,86.51
2019-01-23T05:13:57.538Z,87.93
2019-01-23T05:14:50.149Z,89.35
2019-01-23T05:15:43.672Z,89.06
2019-01-23T05:16:35.622Z,89.25
2019-01-23T05:17:27.871Z,89.73
2019-01-23T05:18:21.258Z,90.3
2019-01-23T05:19:14.172Z,90.2
2019-01-23T05:20:06.803Z,89.2
2019-01-23T05:20:59.472Z,86.46
2019-01-23T05:21:52.374Z,84.52
2019-01-23T05:22:45.259Z,84.52
2019-01-23T05:23:38.207Z,87.27
2019-01-23T05:24:30.713Z,85.47
2019-01-23T05:25:22.902Z,86.32
2019-01-23T05:26:15.769Z,88.49
2019-01-23T05:27:09.134Z,88.87
2019-01-23T05:28:01.678Z,91.62
2019-01-23T05:30:11.369Z,89.35
2019-01-23T05:31:04.244Z,89.73
2019-01-23T05:31:56.916Z,91.91
2019-01-23T05:32:49.658Z,87.84
2019-01-23T05:33:42.790Z,86.6
2019-01-23T05:34:35.156Z,88.02
2019-01-23T05:35:28.367Z,89.44
2019-01-23T05:36:20.966Z,91.62
2019-01-23T05:37:13.217Z,90.11
2019-01-23T05:38:05.486Z,87.17
2019-01-23T05:38:57.406Z,88.31
2019-01-23T05:39:49.918Z,89.06
2019-01-23T05:40:42.247Z,86.7
2019-01-23T05:41:34.907Z,89.25
2019-01-23T05:42:28.804Z,90.48
2019-01-23T05:43:21.113Z,90.11
2019-01-23T05:44:16.141Z,90.34
2019-01-23T05:45:08.262Z,88.45
2019-01-23T05:46:01.649Z,87.5
2019-01-23T05:46:54.215Z,86.65
2019-01-23T05:47:48.063Z,87.5
2019-01-23T05:48:41.274Z,84.85
2019-01-23T05:49:34.088Z,84.75
2019-01-23T05:50:27.588Z,86.18
2019-01-23T05:52:28.419Z,86.46
2019-01-23T05:53:20.868Z,86.65
2019-01-23T05:54:12.777Z,86.12
2019-01-23T05:55:06.353Z,85.46
2019-01-23T05:55:58.512Z,83.37
2019-01-23T05:56:52.207Z,82.9
2019-01-23T05:57:46.038Z,82.81
2019-01-23T05:58:38.196Z,83.85
2019-01-23T05:59:31.539Z,85.36
2019-01-23T06:00:25.344Z,84.32
2019-01-23T06:01:19.156Z,83.66
2019-01-23T06:02:11.430Z,82.43
2019-01-23T06:03:03.790Z,81.01
2019-01-23T06:03:56.124Z,81.29
2019-01-23T06:04:48.320Z,82.9
2019-01-23T06:05:42.567Z,82.43
2019-01-23T06:06:36.001Z,81.1
2019-01-23T06:07:28.996Z,81.86
2019-01-23T06:08:22.047Z,83.24
2019-01-23T06:09:14.862Z,84.66
2019-01-23T06:10:06.938Z,84.56
2019-01-23T06:10:59.373Z,82.76
2019-01-23T06:11:52.264Z,82.67
2019-01-23T06:12:44.645Z,84.66
2019-01-23T06:13:36.833Z,85.42
2019-01-23T06:14:29.590Z,85.74
2019-01-23T06:15:21.652Z,82.43
2019-01-23T06:16:14.762Z,82.24
2019-01-23T06:17:07.667Z,82.71
2019-01-23T06:18:02.533Z,82.14
2019-01-23T06:18:54.688Z,79.77
2019-01-23T06:19:48.089Z,79.77
2019-01-23T06:20:40.330Z,79.58
2019-01-23T06:21:33.490Z,80.06
2019-01-23T06:22:26.101Z,81.1
2019-01-23T06:23:18.471Z,78.45
2019-01-23T06:24:11.280Z,79.39
2019-01-23T06:25:04.418Z,80.44
2019-01-23T06:25:57.339Z,80.82
2019-01-23T06:26:49.873Z,81.38
2019-01-23T06:27:43.027Z,80.44
2019-01-23T06:28:35.499Z,80.63
2019-01-23T06:29:28.189Z,81.48
2019-01-23T06:30:20.490Z,81.82
2019-01-23T06:31:14.689Z,79.55
2019-01-23T06:32:07.268Z,82.01
2019-01-23T06:33:00.575Z,82.48
2019-01-23T06:33:53.080Z,84.94
2019-01-23T06:34:45.585Z,84
2019-01-23T06:35:37.848Z,85.51
2019-01-23T06:36:30.052Z,85.61
2019-01-23T06:37:22.554Z,84.85
2019-01-23T06:38:14.885Z,86.27
2019-01-23T06:39:10.947Z,83.52
2019-01-23T06:40:24.885Z,82.29
2019-01-23T06:42:29.582Z,84.94
2019-01-23T06:43:25.362Z,84.75
2019-01-23T06:44:39.610Z,83.9
2019-01-23T06:45:35.090Z,85.51
2019-01-23T06:46:28.366Z,86.83
2019-01-23T06:47:24.600Z,83.71
2019-01-23T06:48:21.404Z,85.04
2019-01-23T06:49:15.902Z,85.7
2019-01-23T06:50:18.893Z,85.51
2019-01-23T06:51:28.042Z,85.7
2019-01-23T06:52:27.108Z,86.18
2019-01-23T06:53:27.841Z,85.13
2019-01-23T06:54:20.816Z,83.71
2019-01-23T06:55:29.578Z,82.67
2019-01-23T06:56:22.689Z,84.47
2019-01-23T06:57:16.228Z,83.95
2019-01-23T06:58:09.482Z,85.94
2019-01-23T06:59:15.989Z,87.46
2019-01-23T07:00:21.504Z,86.22
2019-01-23T07:01:27.276Z,86.6
2019-01-23T07:02:24.934Z,87.88
2019-01-23T07:03:21.144Z,85.51
2019-01-23T07:04:16.105Z,87.4
2019-01-23T07:05:09.001Z,83.62
2019-01-23T07:06:02.310Z,82.39
2019-01-23T07:06:59.514Z,82.72
2019-01-23T07:07:54.115Z,84.61
2019-01-23T07:08:46.386Z,84.61
2019-01-23T07:09:39.494Z,86.79
2019-01-23T07:10:31.344Z,87.93
2019-01-23T07:11:23.741Z,87.69
2019-01-23T07:12:17.693Z,84.56
2019-01-23T07:18:05.175Z,84
2019-01-23T07:18:58.403Z,82.95
2019-01-23T07:19:55.870Z,83.43
2019-01-23T07:20:52.203Z,83.62
2019-01-23T07:21:48.176Z,85.8
2019-01-23T07:22:40.973Z,84.85
2019-01-23T07:23:36.578Z,84.75
2019-01-23T07:24:29.380Z,83.81
2019-01-23T07:25:23.347Z,82.2
2019-01-23T07:26:18.171Z,82.06
2019-01-23T07:29:02.436Z,86.74
2019-01-23T07:29:58.672Z,84.09
2019-01-23T07:30:56.401Z,84.66
2019-01-23T07:32:02.553Z,83.62
2019-01-23T07:32:58.228Z,83.81
2019-01-23T07:33:50.869Z,82.76
2019-01-23T07:34:45.007Z,82.1
2019-01-23T07:35:41.717Z,82.53
2019-01-23T07:36:39.805Z,86.08
2019-01-23T07:37:41.888Z,83.71
2019-01-23T07:41:00.400Z,86.22
2019-01-23T07:46:55.214Z,85.47
2019-01-23T07:47:50.859Z,86.27
2019-01-23T07:48:47.041Z,85.61
2019-01-23T07:49:42.124Z,85.51
2019-01-23T07:50:40.694Z,82.67
2019-01-23T07:51:35.255Z,82.86
2019-01-23T07:52:31.179Z,81.44
2019-01-23T07:53:28.122Z,83.9
2019-01-23T07:54:22.318Z,85.61
2019-01-23T07:55:18.474Z,83.81
2019-01-23T07:56:11.668Z,81.1
2019-01-23T07:57:04.991Z,78.5
2019-01-23T07:57:58.822Z,80.87
2019-01-23T07:58:53.066Z,82.39
2019-01-23T07:59:47.044Z,82.67
2019-01-23T08:01:52.325Z,81.82
2019-01-23T08:02:46.997Z,79.45
2019-01-23T08:03:41.020Z,81.63
2019-01-23T08:05:44.369Z,82.82
2019-01-23T08:06:38.233Z,82.25
2019-01-23T08:07:31.488Z,83.67
2019-01-23T08:08:27.115Z,82.15
2019-01-23T08:09:24.871Z,83.48
2019-01-23T08:10:20.833Z,84.9
2019-01-23T08:11:19.574Z,84.85
2019-01-23T08:12:13.688Z,86.27
2019-01-23T08:13:11.718Z,82.2
2019-01-23T08:14:16.559Z,80.96
2019-01-23T08:15:34.392Z,84.47
2019-01-23T08:16:26.536Z,86.65
2019-01-23T08:17:32.558Z,80.49
2019-01-23T08:18:28.534Z,78.88
2019-01-23T08:19:25.711Z,79.07
2019-01-23T08:22:04.576Z,83.62
2019-01-23T08:22:57.931Z,82.95
2019-01-23T08:26:17.181Z,81.96
2019-01-23T08:27:15.192Z,84.9
2019-01-23T08:28:09.834Z,82.63
2019-01-23T08:29:08.825Z,82.72
2019-01-23T08:30:13.603Z,85.66
2019-01-23T08:31:08.864Z,85.57
2019-01-23T08:32:07.740Z,83.29
2019-01-23T08:33:07.233Z,83.06
2019-01-23T08:34:04.077Z,86.28
2019-01-23T08:34:58.469Z,87.65
2019-01-23T08:35:54.993Z,87.55
2019-01-23T08:37:12.217Z,83.48
2019-01-23T08:38:16.267Z,80.26
2019-01-23T08:39:15.266Z,82.82
2019-01-23T08:40:11.813Z,82.91
2019-01-23T08:41:17.157Z,83.29
2019-01-23T08:43:58.366Z,83.58
2019-01-23T08:44:39.614Z,82.91
2019-01-23T08:45:20.104Z,83.2
2019-01-23T08:47:20.150Z,83.62
2019-01-23T08:51:02.340Z,78.98
2019-01-23T08:52:00.354Z,80.45
2019-01-23T08:52:54.359Z,83.71
2019-01-23T08:53:48.423Z,82.57
2019-01-23T08:54:45.503Z,80.96
2019-01-23T08:55:40.424Z,84.75
2019-01-23T08:56:38.039Z,81.72
2019-01-23T08:57:35.353Z,78.5
2019-01-23T08:58:32.782Z,82.57
2019-01-23T08:59:28.791Z,82.48
2019-01-23T09:02:13.994Z,76.65
2019-01-23T09:03:10.544Z,76.36
2019-01-23T09:04:16.070Z,75.98
2019-01-23T09:05:27.754Z,77.88
2019-01-23T09:08:38.589Z,74.32
2019-01-23T09:11:06.666Z,74.37
2019-01-23T09:12:04.901Z,75.42
2019-01-23T09:13:23.282Z,78.2
2019-01-23T09:17:23.459Z,74.98
2019-01-23T09:18:22.332Z,74.69
2019-01-23T09:20:10.448Z,73.65
2019-01-23T09:21:03.897Z,73.94
2019-01-23T09:22:09.438Z,74.98
2019-01-23T09:23:01.839Z,74.32
2019-01-23T09:24:00.483Z,73.27
2019-01-23T09:24:58.013Z,73.27
2019-01-23T09:25:54.792Z,76.03
2019-01-23T09:28:32.600Z,72.42
2019-01-23T09:32:50.267Z,73.18
2019-01-23T09:35:14.606Z,71.32
2019-01-23T09:36:18.395Z,72.74
2019-01-23T09:37:05.655Z,69.9
2019-01-23T09:38:02.034Z,69.8
2019-01-23T09:38:52.617Z,69.33
2019-01-23T09:46:13.418Z,73.46
2019-01-23T09:47:18.975Z,73.37
2019-01-23T09:53:42.903Z,68.89
2019-01-23T09:54:41.968Z,66.71
2019-01-23T09:55:42.247Z,66.42
2019-01-23T09:56:42.550Z,66.89
2019-01-23T09:57:44.727Z,65.37
2019-01-23T10:00:33.709Z,66.61
2019-01-23T10:07:35.625Z,64.9
2019-01-23T10:08:40.277Z,66.42
2019-01-23T10:26:19.985Z,78.5
2019-01-23T10:29:02.069Z,77.78
2019-01-23T11:08:21.175Z,81.29
2019-01-23T11:37:04.951Z,79.47
2019-01-23T11:55:16.403Z,77.83
2019-01-23T11:56:23.931Z,78.49
2019-01-23T11:58:36.054Z,76.95
2019-01-23T11:59:29.535Z,75.72
2019-01-23T12:00:32.461Z,69.93
2019-01-23T12:03:24.622Z,72.27
2019-01-23T12:04:32.216Z,75.4
2019-01-23T12:11:33.101Z,75.72
2019-01-23T12:12:44.285Z,73.07
2019-01-23T12:14:58.803Z,71.55
2019-01-23T12:41:10.276Z,68.85
2019-01-23T12:43:03.650Z,71.89
2019-01-23T13:03:40.421Z,66.52
2019-01-23T13:04:37.856Z,67.94
2019-01-23T13:05:30.742Z,69.17
2019-01-23T13:06:29.554Z,70.03
2019-01-23T13:07:24.672Z,68.23
2019-01-23T13:08:22.809Z,68.41
2019-01-23T13:13:14.202Z,69.08
2019-01-23T13:14:08.834Z,66.52
2019-01-23T13:15:01.902Z,64.33
2019-01-23T13:16:15.272Z,67.94
2019-01-23T13:17:23.551Z,68.23
2019-01-23T13:20:16.129Z,66.14
2019-01-23T13:21:10.020Z,65.98
2019-01-23T13:22:03.325Z,65.88
2019-01-23T13:22:58.010Z,66.36
2019-01-23T13:23:54.886Z,64.84
2019-01-23T13:24:49.618Z,65.12
2019-01-23T13:27:26.347Z,64.27
2019-01-23T13:30:38.141Z,64.08
2019-01-23T13:31:53.964Z,64.75
2019-01-23T13:32:59.219Z,64.37
2019-01-23T13:37:23.517Z,62.69
2019-01-23T13:38:21.902Z,61.83
2019-01-23T13:39:22.268Z,62.12
2019-01-23T13:40:14.953Z,61.07
2019-01-23T13:41:15.608Z,60.91
2019-01-23T13:42:25.326Z,60.25
2019-01-23T13:43:19.655Z,59.87
2019-01-23T13:44:21.159Z,59.68
2019-01-23T13:45:24.460Z,59.68
2019-01-23T14:00:42.995Z,56.45
2019-01-23T14:03:07.273Z,56.92
2019-01-23T14:06:21.781Z,58.35
2019-01-23T14:12:43.624Z,61.8
2019-01-23T14:15:34.706Z,63.79
2019-01-23T14:16:25.857Z,62.56
2019-01-23T14:17:14.024Z,62.66
2019-01-23T14:21:24.591Z,61.36
2019-01-23T14:22:22.654Z,61.26
2019-01-23T14:23:15.818Z,61.45
2019-01-23T14:24:12.661Z,60.88
2019-01-23T14:25:12.265Z,61.55
2019-01-23T14:26:05.078Z,60.13
2019-01-23T14:28:42.006Z,59.55
2019-01-23T14:29:36.507Z,60.13
2019-01-23T14:32:36.148Z,58.7
2019-01-23T14:33:32.458Z,59.36
2019-01-23T14:35:52.429Z,60.98
2019-01-23T14:38:04.954Z,62.12
2019-01-23T14:39:07.660Z,61.74
2019-01-23T14:40:04.813Z,60.66
2019-01-23T14:40:59.152Z,61.93
2019-01-23T14:43:07.559Z,62.12
2019-01-23T14:46:21.692Z,60.22
2019-01-23T14:47:19.227Z,60.5
2019-01-23T14:48:16.472Z,60.5
2019-01-23T14:49:08.760Z,59.84
2019-01-23T14:50:10.518Z,59.74
2019-01-23T14:51:03.759Z,60.5
2019-01-23T14:52:00.640Z,60.69
2019-01-23T14:52:55.196Z,62.08
2019-01-23T14:53:36.703Z,62.08
2019-01-23T14:54:17.200Z,62.56
2019-01-23T14:54:58.268Z,63.04
2019-01-23T14:55:38.593Z,62.46
2019-01-23T14:56:18.947Z,62.08
2019-01-23T14:56:59.434Z,62.37
2019-01-23T14:57:39.807Z,61.61
2019-01-23T14:58:20.230Z,61.42
2019-01-23T14:59:00.590Z,62.27
2019-01-23T14:59:41.072Z,62.37
2019-01-23T15:00:22.056Z,62.27
2019-01-23T15:01:02.374Z,62.56
2019-01-23T15:01:42.762Z,63.23
2019-01-23T15:02:24.451Z,63.51
2019-01-23T15:03:04.991Z,62.75
2019-01-23T15:03:45.405Z,63.23
2019-01-23T15:04:25.809Z,63.42
2019-01-23T15:05:06.222Z,63.42
2019-01-23T15:05:46.787Z,64.27
2019-01-23T15:06:27.151Z,63.7
2019-01-23T15:07:08.692Z,63.98
2019-01-23T15:07:48.957Z,63.89
2019-01-23T15:08:29.510Z,62.66
2019-01-23T15:09:10.449Z,63.42
2019-01-23T15:09:51.711Z,63.23
2019-01-23T15:11:04.414Z,62.18
2019-01-23T15:12:03.658Z,62.56
2019-01-23T15:12:45.173Z,62.56
2019-01-23T15:13:25.038Z,61.33
2019-01-23T15:14:11.172Z,62.08
2019-01-23T15:14:52.929Z,61.99
2019-01-23T15:15:36.285Z,62.08
2019-01-23T15:16:16.180Z,62.85
2019-01-23T15:16:58.397Z,62.56
2019-01-23T15:17:37.781Z,62.08
2019-01-23T15:18:19.342Z,61.52
2019-01-23T15:18:59.685Z,61.33
2019-01-23T15:19:47.519Z,62.94
2019-01-23T15:20:27.156Z,63.23
2019-01-23T15:21:07.578Z,63.7
2019-01-23T15:21:48.729Z,63.42
2019-01-23T15:22:29.398Z,62.85
2019-01-23T15:23:09.710Z,62.94
2019-01-23T15:23:50.094Z,62.75
2019-01-23T15:25:14.324Z,61.99
2019-01-23T15:25:54.644Z,61.9
2019-01-23T15:26:35.022Z,61.42
2019-01-23T15:27:27.340Z,61.04
2019-01-23T15:28:44.363Z,60.85
2019-01-23T15:29:27.488Z,60.57
2019-01-23T15:30:07.905Z,59.52
2019-01-23T15:30:48.494Z,59.81
2019-01-23T15:31:30.116Z,59.71
2019-01-23T15:36:35.917Z,62.15
2019-01-23T15:37:30.377Z,62.82
2019-01-23T15:38:29.323Z,62.53
2019-01-23T15:39:24.673Z,61.74
2019-01-23T15:40:17.466Z,60.79
2019-01-23T15:41:12.332Z,61.74
2019-01-23T15:42:20.285Z,62.4
2019-01-23T15:46:21.632Z,63.92
2019-01-23T15:47:11.962Z,63.64
2019-01-23T15:47:59.866Z,62.69
2019-01-23T15:48:48.251Z,63.51
2019-01-23T15:51:13.450Z,66.86
2019-01-23T15:52:06.101Z,66.2
2019-01-23T15:53:04.151Z,64.81
2019-01-23T15:53:57.484Z,65.47
2019-01-23T15:54:53.803Z,64.81
2019-01-23T15:55:50.751Z,64.71
2019-01-23T16:18:21.777Z,65.78
2019-01-23T16:23:40.727Z,67.58
2019-01-23T16:24:35.396Z,66.16
2019-01-23T16:25:29.759Z,66.26
2019-01-23T16:26:23.532Z,66.6
2019-01-23T17:11:01.682Z,60.35
2019-01-23T17:11:58.207Z,61.96
2019-01-23T17:12:53.572Z,63.86
2019-01-23T17:13:51.014Z,65
2019-01-23T17:14:46.376Z,63.48
2019-01-23T17:16:12.863Z,62.78
2019-01-23T17:18:12.307Z,64.01
2019-01-23T17:21:54.370Z,64.49
2019-01-23T17:22:48.997Z,65.03
2019-01-23T17:23:52.175Z,66.1
2019-01-23T17:25:58.905Z,66.26
2019-01-23T17:26:52.916Z,66.96
2019-01-23T17:27:51.573Z,66.77
2019-01-23T17:29:46.545Z,67.05
2019-01-23T17:32:28.733Z,64.24
2019-01-23T17:33:18.789Z,64.24
2019-01-23T17:34:07.693Z,63.01
2019-01-23T17:35:49.310Z,61.87
2019-01-23T17:36:42.472Z,60.92
2019-01-23T17:40:38.232Z,62.69
2019-01-23T17:41:34.434Z,64.97
2019-01-23T17:42:32.074Z,64.59
2019-01-23T17:43:58.580Z,65.82
2019-01-23T17:44:58.230Z,65.44
2019-01-23T17:47:22.494Z,67.24
2019-01-23T17:48:22.288Z,67.33
2019-01-23T17:49:15.651Z,67.75
2019-01-23T17:50:09.747Z,65.72
2019-01-23T17:51:03.032Z,66.42
2019-01-23T17:51:57.866Z,66.52
2019-01-23T17:52:49.909Z,64.43
2019-01-23T17:53:44.092Z,64.05
2019-01-23T17:57:19.510Z,65.66
2019-01-23T17:58:11.963Z,63.48
2019-01-23T17:59:10.246Z,60.92
2019-01-23T18:00:02.688Z,61.77
2019-01-23T18:00:55.573Z,61.01
2019-01-23T18:01:52.791Z,61.27
2019-01-23T18:02:43.198Z,62.88
2019-01-23T18:03:36.537Z,63.45
2019-01-23T18:04:29.128Z,65.53
2019-01-23T18:05:21.592Z,64.87
2019-01-23T18:06:14.152Z,62.4
2019-01-23T18:07:06.623Z,60.13
2019-01-23T18:07:59.300Z,59.66
2019-01-23T18:08:51.555Z,62.5
2019-01-23T18:09:43.923Z,63.92
2019-01-23T18:10:36.438Z,64.01
2019-01-23T18:11:28.966Z,62.85
2019-01-23T18:12:21.633Z,62.47
2019-01-23T18:13:14.646Z,65.59
2019-01-23T18:14:07.435Z,66.54
2019-01-23T18:14:59.540Z,65.69
2019-01-23T18:15:55.589Z,65.41
2019-01-23T18:16:48.168Z,65.88
2019-01-23T18:17:40.400Z,67.43
2019-01-23T18:18:33.868Z,67.33
2019-01-23T18:19:26.061Z,66.48
2019-01-23T18:20:18.887Z,64.59
2019-01-23T18:21:11.591Z,67.14
2019-01-23T18:22:03.624Z,66.58
2019-01-23T18:22:56.289Z,67.05
2019-01-23T18:23:48.368Z,67.14
2019-01-23T18:24:41.106Z,65.82
2019-01-23T18:25:34.414Z,65.63
2019-01-23T18:26:28.655Z,62.88
2019-01-23T18:27:21.049Z,60.79
2019-01-23T18:28:14.569Z,60.6
2019-01-23T18:29:08.033Z,61.33
2019-01-23T18:30:01.055Z,63.04
2019-01-23T18:30:53.494Z,64.27
2019-01-23T18:31:45.633Z,64.08
2019-01-23T18:32:38.135Z,64.84
2019-01-23T18:33:30.613Z,67.49
2019-01-23T18:34:23.028Z,67.21
2019-01-23T18:35:15.519Z,66.48
2019-01-23T18:36:08.812Z,66.96
2019-01-23T18:37:02.192Z,66.2
2019-01-23T18:37:54.781Z,65.82
2019-01-23T18:38:47.048Z,65.75
2019-01-23T18:39:39.709Z,64.9
2019-01-23T18:40:32.497Z,63.67
2019-01-23T18:41:25.024Z,63.29
2019-01-23T18:42:17.682Z,62.56
2019-01-23T18:43:09.835Z,62.15
2019-01-23T18:44:01.942Z,61.87
2019-01-23T18:44:53.893Z,60.82
2019-01-23T18:45:46.041Z,60.73
2019-01-23T18:46:38.247Z,61.77
2019-01-23T18:47:30.323Z,61.87
2019-01-23T18:48:22.384Z,61.39
2019-01-23T18:49:15.497Z,62.05
2019-01-23T18:50:07.170Z,61.39
2019-01-23T18:50:59.723Z,60.95
2019-01-23T18:51:53.032Z,61.23
2019-01-23T18:52:45.333Z,60.85
2019-01-23T18:53:37.679Z,60.95
2019-01-23T18:54:30.371Z,59.33
2019-01-23T18:55:23.724Z,59.33
2019-01-23T18:56:15.740Z,58.48
2019-01-23T18:57:08.135Z,60
2019-01-23T18:58:00.126Z,59.91
2019-01-23T18:58:52.949Z,59.05
2019-01-23T18:59:45.778Z,59.71
2019-01-23T19:00:39.559Z,59.43
2019-01-23T19:01:33.978Z,58.58
2019-01-23T19:02:26.690Z,58.48
2019-01-23T19:03:18.937Z,59.14
2019-01-23T19:04:11.368Z,58.95
2019-01-23T19:05:03.606Z,59.81
2019-01-23T19:05:56.071Z,59.14
2019-01-23T19:06:48.657Z,58.67
2019-01-23T19:07:41.018Z,58
2019-01-23T19:08:33.539Z,58.58
2019-01-23T19:09:26.197Z,57.62
2019-01-23T19:10:19.079Z,58.2
2019-01-23T19:11:11.257Z,57.62
2019-01-23T19:12:03.596Z,57.43
2019-01-23T19:12:56.007Z,57.34
2019-01-23T19:13:48.481Z,57.34
2019-01-23T19:14:41.129Z,57.15
2019-01-23T19:15:33.420Z,57.15
2019-01-23T19:16:26.116Z,57.43
2019-01-23T19:17:18.519Z,57.53
2019-01-23T19:18:11.040Z,56.68
2019-01-23T19:19:03.625Z,56.87
2019-01-23T19:19:55.706Z,58.1
2019-01-23T19:20:48.268Z,58.39
2019-01-23T19:21:41.430Z,58.2